createdAt,value
2022-09-04T00:00:09.004Z,59.55
2022-09-04T00:02:55.441Z,59.59
2022-09-04T00:05:36.736Z,59.65
2022-09-04T00:08:16.602Z,60.16
2022-09-04T00:11:01.287Z,60.20
2022-09-04T00:13:38.257Z,60.18
2022-09-04T00:16:17.015Z,60.43
2022-09-04T00:19:14.074Z,60.66
2022-09-04T00:21:58.624Z,60.49
2022-09-04T00:24:31.057Z,60.76
2022-09-04T00:27:07.983Z,60.54
2022-09-04T00:29:44.917Z,60.92
2022-09-04T00:32:29.243Z,61.25
2022-09-04T00:35:02.501Z,61.20
2022-09-04T00:37:44.098Z,61.21
2022-09-04T00:40:23.895Z,61.39
2022-09-04T00:43:02.183Z,61.67
2022-09-04T00:45:58.506Z,61.98
2022-09-04T00:48:59.168Z,61.57
2022-09-04T00:51:45.664Z,61.92
2022-09-04T00:54:41.279Z,61.92
2022-09-04T00:57:19.528Z,62.18
2022-09-04T01:00:04.021Z,62.11
2022-09-04T01:02:49.797Z,62.37
2022-09-04T01:05:34.446Z,62.65
2022-09-04T01:08:35.109Z,63.11
2022-09-04T01:11:13.289Z,63.29
2022-09-04T01:13:51.922Z,63.80
2022-09-04T01:16:34.476Z,64.03
2022-09-04T01:19:28.474Z,64.51
2022-09-04T01:22:30.117Z,64.54
2022-09-04T01:25:05.700Z,64.35
2022-09-04T01:27:54.629Z,64.61
2022-09-04T01:30:21.949Z,64.55
2022-09-04T01:32:59.839Z,65.02
2022-09-04T01:35:34.567Z,65.03
2022-09-04T01:38:25.089Z,65.00
2022-09-04T01:40:58.454Z,65.28
2022-09-04T01:43:25.422Z,65.63
2022-09-04T01:46:27.080Z,65.89
2022-09-04T01:49:21.498Z,66.31
2022-09-04T01:52:13.949Z,66.26
2022-09-04T01:55:05.156Z,66.43
2022-09-04T01:57:31.576Z,66.36
2022-09-04T02:00:11.924Z,66.83
2022-09-04T02:03:17.893Z,67.11
2022-09-04T02:06:08.534Z,67.30
2022-09-04T02:08:43.732Z,67.43
2022-09-04T02:11:16.366Z,67.68
2022-09-04T02:14:11.256Z,67.71
2022-09-04T02:16:46.979Z,67.96
2022-09-04T02:19:22.500Z,67.85
2022-09-04T02:22:15.690Z,67.88
2022-09-04T02:25:15.483Z,68.28
2022-09-04T02:28:08.274Z,68.44
2022-09-04T02:30:54.277Z,68.08
2022-09-04T02:33:35.461Z,68.31
2022-09-04T02:36:29.501Z,68.70
2022-09-04T02:39:22.905Z,68.70
2022-09-04T02:41:59.306Z,68.96
2022-09-04T02:44:43.388Z,68.95
2022-09-04T02:47:47.835Z,69.35
2022-09-04T02:50:32.750Z,69.42
2022-09-04T02:53:26.736Z,69.48
2022-09-04T02:56:09.831Z,69.54
2022-09-04T02:59:07.558Z,70.13
2022-09-04T03:01:51.956Z,70.37
2022-09-04T03:04:28.020Z,70.27
2022-09-04T03:07:02.904Z,70.47
2022-09-04T03:09:44.584Z,70.56
2022-09-04T03:12:29.892Z,70.69
2022-09-04T03:15:27.376Z,71.34
2022-09-04T03:18:16.772Z,70.93
2022-09-04T03:20:51.661Z,70.93
2022-09-04T03:23:32.629Z,71.12
2022-09-04T03:26:23.273Z,71.33
2022-09-04T03:29:06.335Z,71.37
2022-09-04T03:32:17.297Z,71.59
2022-09-04T03:34:49.200Z,71.97
2022-09-04T03:37:56.501Z,71.86
2022-09-04T03:40:25.988Z,71.71
2022-09-04T03:43:03.263Z,71.86
2022-09-04T03:45:52.805Z,71.79
2022-09-04T03:48:46.753Z,71.82
2022-09-04T03:51:25.724Z,71.85
2022-09-04T03:54:12.180Z,71.70
2022-09-04T03:56:56.087Z,71.90
2022-09-04T03:59:46.584Z,71.98
2022-09-04T04:02:28.450Z,71.93
2022-09-04T04:05:24.968Z,72.09
2022-09-04T04:07:57.212Z,72.15
2022-09-04T04:10:33.801Z,72.32
2022-09-04T04:13:29.550Z,72.33
2022-09-04T04:16:24.517Z,72.33
2022-09-04T04:19:15.014Z,72.46
2022-09-04T04:22:12.162Z,72.22
2022-09-04T04:25:02.014Z,72.52
2022-09-04T04:27:44.156Z,73.00
2022-09-04T04:30:15.053Z,72.92
2022-09-04T04:32:54.460Z,72.76
2022-09-04T04:35:34.963Z,72.81
2022-09-04T04:38:07.665Z,72.96
2022-09-04T04:41:11.257Z,73.23
2022-09-04T04:43:51.323Z,73.08
2022-09-04T04:46:42.376Z,73.30
2022-09-04T04:49:44.727Z,73.19
2022-09-04T04:52:40.407Z,73.58
2022-09-04T04:55:31.360Z,73.45
2022-09-04T04:58:00.363Z,73.38
2022-09-04T05:00:40.816Z,73.49
2022-09-04T05:03:21.573Z,73.56
2022-09-04T05:06:14.853Z,73.69
2022-09-04T05:09:01.543Z,73.61
2022-09-04T05:11:46.820Z,74.10
2022-09-04T05:14:41.092Z,73.99
2022-09-04T05:17:28.841Z,74.29
2022-09-04T05:20:28.459Z,74.21
2022-09-04T05:23:01.209Z,74.68
2022-09-04T05:25:42.893Z,74.46
2022-09-04T05:28:39.745Z,74.54
2022-09-04T05:31:30.951Z,74.44
2022-09-04T05:34:09.568Z,74.54
2022-09-04T05:37:01.107Z,74.71
2022-09-04T05:39:32.296Z,74.75
2022-09-04T05:42:06.714Z,74.90
2022-09-04T05:44:45.921Z,74.54
2022-09-04T05:47:22.339Z,74.81
2022-09-04T05:50:00.661Z,74.47
2022-09-04T05:52:59.322Z,74.39
2022-09-04T05:55:57.765Z,74.48
2022-09-04T05:58:47.689Z,74.17
2022-09-04T06:01:25.356Z,74.46
2022-09-04T06:04:00.915Z,74.19
2022-09-04T06:06:42.518Z,74.28
2022-09-04T06:09:39.335Z,74.06
2022-09-04T06:12:24.982Z,73.72
2022-09-04T06:15:00.620Z,73.49
2022-09-04T06:17:48.319Z,73.35
2022-09-04T06:20:45.484Z,73.46
2022-09-04T06:23:33.892Z,73.08
2022-09-04T06:26:03.442Z,72.89
2022-09-04T06:28:44.904Z,72.96
2022-09-04T06:31:30.018Z,72.72
2022-09-04T06:34:22.373Z,72.83
2022-09-04T06:37:23.502Z,72.60
2022-09-04T06:40:00.160Z,72.72
2022-09-04T06:42:53.275Z,72.61
2022-09-04T06:45:35.437Z,72.20
2022-09-04T06:48:35.673Z,72.35
2022-09-04T06:51:32.337Z,72.34
2022-09-04T06:54:05.408Z,71.97
2022-09-04T06:57:03.297Z,71.46
2022-09-04T06:59:41.828Z,71.39
2022-09-04T07:02:23.682Z,71.37
2022-09-04T07:05:04.142Z,71.41
2022-09-04T07:07:49.740Z,71.23
2022-09-04T07:10:21.607Z,70.68
2022-09-04T07:13:13.262Z,70.66
2022-09-04T07:16:05.311Z,70.46
2022-09-04T07:19:00.060Z,69.80
2022-09-04T07:21:45.131Z,70.11
2022-09-04T07:24:49.442Z,70.02
2022-09-04T07:27:25.389Z,69.53
2022-09-04T07:29:58.980Z,69.45
2022-09-04T07:32:44.553Z,68.83
2022-09-04T07:35:30.045Z,69.05
2022-09-04T07:38:07.528Z,69.05
2022-09-04T07:40:53.302Z,68.68
2022-09-04T07:43:42.408Z,68.79
2022-09-04T07:46:29.795Z,68.37
2022-09-04T07:49:09.953Z,68.12
2022-09-04T07:51:51.587Z,68.14
2022-09-04T07:54:39.353Z,67.82
2022-09-04T07:57:12.148Z,68.17
2022-09-04T07:59:59.281Z,67.92
2022-09-04T08:03:03.908Z,67.57
2022-09-04T08:05:38.335Z,67.17
2022-09-04T08:08:16.631Z,66.89
2022-09-04T08:11:02.450Z,67.22
2022-09-04T08:13:43.126Z,66.78
2022-09-04T08:16:29.929Z,66.41
2022-09-04T08:19:25.492Z,66.01
2022-09-04T08:21:53.771Z,66.16
2022-09-04T08:24:41.909Z,65.39
2022-09-04T08:27:47.615Z,65.28
2022-09-04T08:30:18.683Z,65.36
2022-09-04T08:32:45.429Z,65.43
2022-09-04T08:35:36.565Z,65.50
2022-09-04T08:38:32.030Z,64.46
2022-09-04T08:41:18.008Z,64.50
2022-09-04T08:44:19.994Z,63.83
2022-09-04T08:47:04.084Z,63.90
2022-09-04T08:49:36.474Z,63.88
2022-09-04T08:52:21.806Z,63.49
2022-09-04T08:55:07.977Z,63.53
2022-09-04T08:57:56.640Z,63.25
2022-09-04T09:00:38.519Z,63.33
2022-09-04T09:03:39.319Z,62.37
2022-09-04T09:06:57.223Z,62.68
2022-09-04T09:09:39.053Z,62.27
2022-09-04T09:12:18.029Z,62.18
2022-09-04T09:15:18.448Z,62.03
2022-09-04T09:18:17.960Z,61.97
2022-09-04T09:20:58.039Z,61.56
2022-09-04T09:23:41.580Z,61.59
2022-09-04T09:26:08.741Z,61.27
2022-09-04T09:28:35.217Z,61.11
2022-09-04T09:31:44.885Z,60.12
2022-09-04T09:34:50.500Z,60.43
2022-09-04T09:37:53.907Z,59.83
2022-09-04T09:40:39.716Z,59.96
2022-09-04T09:43:29.596Z,59.65
2022-09-04T09:46:15.215Z,59.87
2022-09-04T09:48:58.933Z,58.61
2022-09-04T09:51:42.506Z,58.96
2022-09-04T09:54:08.931Z,59.18
2022-09-04T09:56:55.695Z,58.90
2022-09-04T09:59:43.831Z,58.48
2022-09-04T10:02:38.325Z,58.14
2022-09-04T10:05:42.404Z,57.88
2022-09-04T10:08:35.639Z,58.10
2022-09-04T10:11:23.627Z,57.63
2022-09-04T10:14:24.410Z,57.58
2022-09-04T10:17:19.571Z,56.98
2022-09-04T10:19:50.705Z,57.11
2022-09-04T10:22:51.533Z,57.10
2022-09-04T10:25:31.115Z,56.73
2022-09-04T10:28:29.785Z,56.97
2022-09-04T10:31:14.868Z,56.11
2022-09-04T10:34:12.820Z,56.35
2022-09-04T10:36:41.945Z,56.13
2022-09-04T10:40:02.042Z,55.81
2022-09-04T10:42:48.462Z,55.25
2022-09-04T10:45:39.095Z,55.56
2022-09-04T10:48:14.940Z,55.47
2022-09-04T10:51:02.047Z,55.78
2022-09-04T10:53:49.900Z,55.37
2022-09-04T10:56:30.509Z,55.13
2022-09-04T10:59:09.780Z,54.50
2022-09-04T11:01:55.318Z,54.28
2022-09-04T11:04:59.907Z,54.18
2022-09-04T11:07:35.222Z,54.02
2022-09-04T11:10:20.281Z,54.00
2022-09-04T11:12:58.948Z,53.42
2022-09-04T11:15:52.583Z,53.66
2022-09-04T11:18:41.317Z,53.50
2022-09-04T11:21:34.779Z,52.95
2022-09-04T11:24:41.528Z,52.47
2022-09-04T11:27:36.837Z,52.42
2022-09-04T11:30:14.656Z,52.59
2022-09-04T11:32:57.648Z,52.96
2022-09-04T11:35:45.644Z,52.25
2022-09-04T11:38:22.461Z,52.01
2022-09-04T11:41:57.321Z,52.35
2022-09-04T11:44:48.253Z,52.02
2022-09-04T11:47:39.411Z,51.34
2022-09-04T11:50:16.427Z,51.46
2022-09-04T11:52:55.633Z,50.79
2022-09-04T11:55:50.752Z,50.53
2022-09-04T11:58:25.061Z,51.02
2022-09-04T12:01:03.983Z,51.13
2022-09-04T12:03:44.680Z,51.11
2022-09-04T12:06:37.410Z,50.93
2022-09-04T12:09:32.133Z,50.39
2022-09-04T12:12:31.263Z,50.18
2022-09-04T12:15:20.449Z,49.97
2022-09-04T12:17:56.490Z,50.00
2022-09-04T12:20:39.356Z,49.39
2022-09-04T12:23:34.249Z,49.51
2022-09-04T12:26:19.127Z,49.33
2022-09-04T12:28:49.045Z,49.43
2022-09-04T12:31:34.559Z,49.35
2022-09-04T12:34:08.493Z,49.79
2022-09-04T12:36:54.180Z,49.44
2022-09-04T12:39:23.955Z,48.42
2022-09-04T12:41:59.717Z,49.13
2022-09-04T12:44:58.011Z,48.83
2022-09-04T12:47:41.693Z,48.62
2022-09-04T12:50:53.042Z,48.35
2022-09-04T12:53:35.882Z,48.77
2022-09-04T12:56:11.626Z,49.18
2022-09-04T12:59:06.818Z,48.86
2022-09-04T13:02:08.391Z,47.69
2022-09-04T13:05:13.911Z,47.88
2022-09-04T13:07:58.893Z,47.86
2022-09-04T13:10:50.411Z,47.38
2022-09-04T13:13:25.082Z,47.66
2022-09-04T13:16:21.686Z,48.26
2022-09-04T13:19:01.102Z,47.84
2022-09-04T13:21:50.148Z,47.59
2022-09-04T13:24:51.258Z,47.34
2022-09-04T13:27:57.379Z,47.45
2022-09-04T13:30:25.583Z,47.71
2022-09-04T13:33:17.024Z,47.90
2022-09-04T13:36:05.758Z,47.28
2022-09-04T13:38:37.975Z,46.79
2022-09-04T13:41:22.580Z,47.28
2022-09-04T13:44:00.626Z,47.10
2022-09-04T13:46:44.276Z,46.96
2022-09-04T13:49:16.422Z,46.80
2022-09-04T13:51:53.105Z,46.54
2022-09-04T13:54:39.109Z,46.81
2022-09-04T13:57:28.304Z,46.48
2022-09-04T14:00:07.535Z,46.33
2022-09-04T14:02:36.698Z,46.72
2022-09-04T14:05:13.346Z,46.28
2022-09-04T14:07:45.194Z,45.63
2022-09-04T14:10:25.693Z,45.22
2022-09-04T14:13:11.131Z,44.88
2022-09-04T14:15:48.642Z,44.89
2022-09-04T14:18:45.626Z,44.80
2022-09-04T14:21:37.522Z,44.15
2022-09-04T14:24:32.908Z,44.40
2022-09-04T14:27:21.379Z,44.42
2022-09-04T14:30:14.651Z,44.46
2022-09-04T14:32:47.677Z,44.66
2022-09-04T14:35:59.857Z,44.38
2022-09-04T14:38:54.184Z,43.62
2022-09-04T14:41:43.013Z,43.75
2022-09-04T14:44:32.619Z,43.78
2022-09-04T14:47:20.609Z,43.38
2022-09-04T14:49:50.127Z,42.99
2022-09-04T14:52:37.927Z,43.94
2022-09-04T14:55:12.923Z,43.04
2022-09-04T14:58:05.582Z,42.96
2022-09-04T15:00:34.807Z,43.07
2022-09-04T15:03:28.472Z,43.61
2022-09-04T15:06:01.688Z,43.47
2022-09-04T15:08:40.335Z,43.45
2022-09-04T15:11:09.684Z,43.29
2022-09-04T15:13:39.357Z,42.86
2022-09-04T15:16:30.117Z,42.96
2022-09-04T15:19:05.857Z,43.32
2022-09-04T15:21:43.495Z,42.50
2022-09-04T15:24:38.704Z,42.30
2022-09-04T15:27:05.621Z,42.33
2022-09-04T15:29:55.594Z,42.95
2022-09-04T15:32:32.376Z,42.96
2022-09-04T15:35:21.070Z,42.65
2022-09-04T15:38:04.955Z,42.39
2022-09-04T15:40:59.591Z,41.90
2022-09-04T15:43:47.312Z,41.97
2022-09-04T15:46:24.536Z,42.50
2022-09-04T15:49:38.915Z,42.00
2022-09-04T15:52:29.857Z,41.70
2022-09-04T15:55:02.267Z,41.34
2022-09-04T15:57:42.921Z,41.64
2022-09-04T16:00:12.905Z,40.98
2022-09-04T16:02:59.507Z,41.43
2022-09-04T16:05:33.453Z,40.86
2022-09-04T16:08:05.272Z,40.61
2022-09-04T16:10:48.655Z,40.63
2022-09-04T16:13:38.158Z,40.30
2022-09-04T16:16:27.822Z,39.24
2022-09-04T16:19:07.488Z,38.72
2022-09-04T16:21:54.372Z,38.13
2022-09-04T16:24:48.555Z,37.62
2022-09-04T16:27:20.232Z,36.61
2022-09-04T16:29:57.769Z,36.49
2022-09-04T16:32:32.075Z,35.37
2022-09-04T16:35:12.500Z,34.90
2022-09-04T16:37:53.770Z,33.63
2022-09-04T16:40:31.995Z,32.70
2022-09-04T16:43:01.944Z,32.21
2022-09-04T16:45:39.912Z,31.81
2022-09-04T16:48:37.275Z,31.92
2022-09-04T16:51:40.362Z,32.41
2022-09-04T16:54:55.189Z,31.98
2022-09-04T16:57:35.300Z,32.87
2022-09-04T17:00:14.263Z,33.72
2022-09-04T17:02:55.857Z,34.43
2022-09-04T17:05:35.140Z,35.57
2022-09-04T17:08:34.878Z,36.02
2022-09-04T17:11:23.401Z,36.66
2022-09-04T17:13:58.306Z,37.33
2022-09-04T17:16:37.079Z,38.24
2022-09-04T17:19:04.483Z,38.91
2022-09-04T17:28:54.604Z,39.32
2022-09-04T17:28:58.919Z,39.84
2022-09-04T17:29:13.395Z,40.58
2022-09-04T17:31:36.383Z,41.16
2022-09-04T17:40:33.847Z,41.92
2022-09-04T17:40:36.936Z,42.04
2022-09-04T17:44:03.742Z,43.46
2022-09-04T17:46:43.407Z,43.67
2022-09-04T17:49:20.505Z,44.33
2022-09-04T17:51:57.818Z,44.76
2022-09-04T17:54:37.661Z,44.84
2022-09-04T17:57:10.269Z,45.45
2022-09-04T17:59:52.814Z,45.81
2022-09-04T18:02:28.156Z,45.94
2022-09-04T18:05:04.317Z,46.43
2022-09-04T18:08:08.061Z,46.87
2022-09-04T18:10:34.206Z,47.10
2022-09-04T18:13:38.941Z,47.47
2022-09-04T18:16:19.739Z,47.82
2022-09-04T18:18:52.003Z,48.09
2022-09-04T18:21:26.679Z,48.39
2022-09-04T18:24:06.958Z,48.68
2022-09-04T18:26:41.616Z,49.14
2022-09-04T18:33:16.197Z,49.37
2022-09-04T18:37:19.204Z,50.07
2022-09-04T18:37:24.423Z,49.66
2022-09-04T18:39:08.170Z,50.42
2022-09-04T18:47:40.278Z,50.53
2022-09-04T18:50:31.590Z,50.86
2022-09-04T18:50:45.239Z,50.88
2022-09-04T18:51:15.134Z,51.26
2022-09-04T18:53:49.455Z,50.96
2022-09-04T18:56:41.968Z,51.54
2022-09-04T18:59:18.347Z,51.48
2022-09-04T19:01:44.911Z,51.57
2022-09-04T19:04:33.006Z,51.61
2022-09-04T19:07:10.613Z,51.88
2022-09-04T19:09:56.152Z,52.09
2022-09-04T19:12:35.869Z,51.84
2022-09-04T19:15:36.704Z,51.90
2022-09-04T19:18:41.701Z,52.10
2022-09-04T19:21:08.308Z,52.16
2022-09-04T19:23:44.372Z,52.22
2022-09-04T19:26:39.022Z,52.32
2022-09-04T19:29:13.803Z,52.65
2022-09-04T19:31:52.063Z,52.63
2022-09-04T19:34:28.299Z,52.85
2022-09-04T19:37:16.283Z,52.79
2022-09-04T19:45:59.935Z,52.82
2022-09-04T19:46:07.996Z,52.79
2022-09-04T19:46:13.768Z,53.02
2022-09-04T19:49:09.078Z,53.47
2022-09-04T19:53:36.729Z,53.23
2022-09-04T19:54:40.064Z,53.25
2022-09-04T19:57:46.405Z,53.29
2022-09-04T20:00:42.594Z,53.47
2022-09-04T20:03:24.901Z,53.54
2022-09-04T20:06:21.025Z,53.68
2022-09-04T20:09:29.242Z,53.88
2022-09-04T20:12:10.533Z,53.77
2022-09-04T20:14:48.931Z,53.73
2022-09-04T20:17:37.301Z,54.07
2022-09-04T20:20:32.275Z,54.06
2022-09-04T20:23:35.185Z,54.26
2022-09-04T20:26:01.404Z,54.45
2022-09-04T20:28:50.103Z,54.42
2022-09-04T20:31:50.547Z,54.54
2022-09-04T20:34:33.347Z,54.83
2022-09-04T20:37:28.456Z,54.76
2022-09-04T20:40:14.231Z,54.88
2022-09-04T20:42:51.462Z,54.87
2022-09-04T20:48:18.752Z,55.21
2022-09-04T20:52:51.289Z,55.28
2022-09-04T20:53:05.827Z,55.40
2022-09-04T20:54:58.803Z,55.67
2022-09-04T21:03:13.845Z,55.64
2022-09-04T21:03:22.138Z,55.78
2022-09-04T21:03:57.428Z,55.82
2022-09-04T21:06:30.173Z,56.17
2022-09-04T21:09:32.314Z,56.06
2022-09-04T21:12:32.256Z,56.24
2022-09-04T21:15:07.251Z,56.18
2022-09-04T21:17:44.147Z,56.43
2022-09-04T21:20:59.404Z,56.56
2022-09-04T21:23:40.044Z,56.76
2022-09-04T21:26:37.537Z,56.59
2022-09-04T21:29:35.545Z,56.84
2022-09-04T21:32:22.597Z,56.77
2022-09-04T21:35:20.302Z,56.93
2022-09-04T21:38:02.517Z,57.13
2022-09-04T21:40:53.561Z,57.27
2022-09-04T21:43:45.035Z,57.20
2022-09-04T21:46:23.453Z,57.29
2022-09-04T21:49:26.257Z,57.44
2022-09-04T21:52:15.308Z,57.44
2022-09-04T21:57:14.995Z,57.47
2022-09-04T22:02:40.289Z,57.70
2022-09-04T22:02:41.886Z,57.57
2022-09-04T22:04:48.870Z,57.61
2022-09-04T22:13:26.239Z,57.63
2022-09-04T22:13:28.701Z,57.72
2022-09-04T22:14:15.521Z,57.62
2022-09-04T22:17:00.023Z,57.68
2022-09-04T22:19:41.536Z,57.65
2022-09-04T22:22:33.245Z,57.90
2022-09-04T22:25:14.871Z,57.85
2022-09-04T22:28:15.174Z,58.02
2022-09-04T22:31:01.118Z,58.08
2022-09-04T22:33:57.000Z,58.13
2022-09-04T22:36:42.312Z,58.33
2022-09-04T22:39:57.621Z,58.31
2022-09-04T22:42:38.826Z,58.40
2022-09-04T22:45:30.278Z,58.44
2022-09-04T22:48:14.424Z,58.56
2022-09-04T22:51:18.738Z,58.78
2022-09-04T22:53:51.771Z,58.74
2022-09-04T22:56:40.174Z,58.77
2022-09-04T22:59:26.930Z,58.89
2022-09-04T23:02:18.996Z,58.93
2022-09-04T23:05:10.905Z,59.09
2022-09-04T23:12:23.393Z,59.35
2022-09-04T23:13:52.005Z,59.16
2022-09-04T23:14:06.477Z,59.26
2022-09-04T23:16:39.818Z,59.43
2022-09-04T23:26:35.719Z,59.64
2022-09-04T23:26:37.639Z,60.05
2022-09-04T23:26:45.337Z,59.86
2022-09-04T23:28:40.117Z,60.12
2022-09-04T23:31:41.652Z,59.98
2022-09-04T23:34:25.419Z,60.26
2022-09-04T23:37:23.956Z,60.49
2022-09-04T23:40:10.284Z,60.43
2022-09-04T23:42:52.083Z,60.33
2022-09-04T23:46:01.842Z,60.58
2022-09-04T23:48:34.182Z,60.21
2022-09-04T23:51:10.482Z,60.14
2022-09-04T23:53:55.974Z,60.29
2022-09-04T23:56:28.758Z,60.07
2022-09-04T23:59:29.189Z,60.25
